createdAt,value
2019-01-30T00:01:45.947Z,22.87
2019-01-30T00:04:22.832Z,23.13
2019-01-30T00:06:57.620Z,24.93
2019-01-30T00:09:32.459Z,24.77
2019-01-30T00:12:06.905Z,23.67
2019-01-30T00:14:41.466Z,22.93
2019-01-30T00:17:17.137Z,24.47
2019-01-30T00:19:51.963Z,24.50
2019-01-30T00:22:28.923Z,23.33
2019-01-30T00:25:03.748Z,22.97
2019-01-30T00:27:38.614Z,22.33
2019-01-30T00:30:14.330Z,24.17
2019-01-30T00:32:49.908Z,23.50
2019-01-30T00:35:41.867Z,23.63
2019-01-30T00:38:16.799Z,23.80
2019-01-30T00:40:51.932Z,24.87
2019-01-30T00:43:31.722Z,23.83
2019-01-30T00:46:06.418Z,23.47
2019-01-30T00:48:59.660Z,24.57
2019-01-30T00:51:34.563Z,23.77
2019-01-30T00:54:09.703Z,22.87
2019-01-30T00:56:44.204Z,22.70
2019-01-30T00:59:18.750Z,23.23
2019-01-30T01:01:53.277Z,24.20
2019-01-30T01:04:28.032Z,23.93
2019-01-30T01:07:02.878Z,24.40
2019-01-30T01:09:37.561Z,23.10
2019-01-30T01:12:12.471Z,23.90
2019-01-30T01:14:47.170Z,25.00
2019-01-30T01:17:22.285Z,23.63
2019-01-30T01:19:56.767Z,24.40
2019-01-30T01:22:31.486Z,26.37
2019-01-30T01:25:06.079Z,26.47
2019-01-30T01:27:40.471Z,26.30
2019-01-30T01:30:24.963Z,26.17
2019-01-30T01:32:53.850Z,25.30
2019-01-30T01:35:29.285Z,26.47
2019-01-30T01:38:04.148Z,25.20
2019-01-30T01:40:39.133Z,25.80
2019-01-30T01:43:13.802Z,26.93
2019-01-30T01:45:48.454Z,25.60
2019-01-30T01:48:23.374Z,25.70
2019-01-30T01:50:59.244Z,26.13
2019-01-30T01:53:34.346Z,25.13
2019-01-30T01:56:26.572Z,26.13
2019-01-30T01:59:01.457Z,25.20
2019-01-30T02:01:36.149Z,27.15
2019-01-30T02:04:11.188Z,25.40
2019-01-30T02:06:46.034Z,25.90
2019-01-30T02:09:20.570Z,25.00
2019-01-30T02:11:55.514Z,25.53
2019-01-30T02:14:29.743Z,25.67
2019-01-30T02:17:23.756Z,26.37
2019-01-30T02:19:59.396Z,26.33
2019-01-30T02:22:35.530Z,25.25
2019-01-30T02:25:11.144Z,23.33
2019-01-30T02:27:46.196Z,24.43
2019-01-30T02:30:25.012Z,24.13
2019-01-30T02:32:59.668Z,21.97
2019-01-30T02:35:34.191Z,23.87
2019-01-30T02:38:08.546Z,23.87
2019-01-30T02:40:45.128Z,23.17
2019-01-30T02:43:21.335Z,22.73
2019-01-30T02:45:55.994Z,21.17
2019-01-30T02:48:30.616Z,21.82
2019-01-30T02:51:05.169Z,22.83
2019-01-30T02:53:40.119Z,22.73
2019-01-30T02:56:14.632Z,22.63
2019-01-30T02:58:50.127Z,22.40
2019-01-30T03:01:24.512Z,22.85
2019-01-30T03:04:05.546Z,22.57
2019-01-30T03:06:39.707Z,22.48
2019-01-30T03:09:14.434Z,22.90
2019-01-30T03:11:49.609Z,22.48
2019-01-30T03:14:24.423Z,22.57
2019-01-30T03:16:59.544Z,22.60
2019-01-30T03:19:34.446Z,23.70
2019-01-30T03:22:09.171Z,23.50
2019-01-30T03:24:43.813Z,23.47
2019-01-30T03:27:18.637Z,23.53
2019-01-30T03:30:14.363Z,23.50
2019-01-30T03:32:48.362Z,23.20
2019-01-30T03:35:23.607Z,21.80
2019-01-30T03:37:57.920Z,23.17
2019-01-30T03:40:32.808Z,24.43
2019-01-30T03:43:08.002Z,24.73
2019-01-30T03:45:43.275Z,25.63
2019-01-30T03:48:18.252Z,25.13
2019-01-30T03:50:52.731Z,23.70
2019-01-30T03:53:27.815Z,23.35
2019-01-30T03:56:02.489Z,23.70
2019-01-30T03:58:37.481Z,23.17
2019-01-30T04:01:11.600Z,24.40
2019-01-30T04:03:47.006Z,24.23
2019-01-30T04:06:22.097Z,25.12
2019-01-30T04:08:56.609Z,24.23
2019-01-30T04:11:31.112Z,22.00
2019-01-30T04:14:05.639Z,22.85
2019-01-30T04:16:43.329Z,22.90
2019-01-30T04:19:17.798Z,23.20
2019-01-30T04:21:52.531Z,23.55
2019-01-30T04:24:28.307Z,24.95
2019-01-30T04:27:02.908Z,24.15
2019-01-30T04:29:37.243Z,24.75
2019-01-30T04:32:13.248Z,25.20
2019-01-30T04:34:47.896Z,23.85
2019-01-30T04:37:22.768Z,22.58
2019-01-30T04:40:16.709Z,23.98
2019-01-30T04:42:51.807Z,23.12
2019-01-30T04:45:27.715Z,23.00
2019-01-30T04:48:03.833Z,22.50
2019-01-30T04:50:41.984Z,23.65
2019-01-30T04:53:16.782Z,22.70
2019-01-30T04:55:51.435Z,22.10
2019-01-30T04:58:26.324Z,22.48
2019-01-30T05:01:00.553Z,23.00
2019-01-30T05:03:35.241Z,22.48
2019-01-30T05:06:09.998Z,23.20
2019-01-30T05:08:44.483Z,23.43
2019-01-30T05:11:19.402Z,23.60
2019-01-30T05:13:54.177Z,23.80
2019-01-30T05:16:28.836Z,22.65
2019-01-30T05:19:03.303Z,23.50
2019-01-30T05:21:38.569Z,23.00
2019-01-30T05:24:13.271Z,23.22
2019-01-30T05:26:48.520Z,23.10
2019-01-30T05:29:23.496Z,23.45
2019-01-30T05:32:01.398Z,23.30
2019-01-30T05:34:34.251Z,24.10
2019-01-30T05:37:09.924Z,23.25
2019-01-30T05:39:44.348Z,24.53
2019-01-30T05:42:18.646Z,23.67
2019-01-30T05:44:53.248Z,25.40
2019-01-30T05:47:46.999Z,25.43
2019-01-30T05:50:21.750Z,24.27
2019-01-30T05:52:56.377Z,23.75
2019-01-30T05:55:31.483Z,26.77
2019-01-30T05:58:05.573Z,25.77
2019-01-30T06:00:45.713Z,25.05
2019-01-30T06:03:20.195Z,25.27
2019-01-30T06:05:55.160Z,26.47
2019-01-30T06:08:29.801Z,26.33
2019-01-30T06:11:04.777Z,27.02
2019-01-30T06:13:39.284Z,26.07
2019-01-30T06:16:14.437Z,25.50
2019-01-30T06:18:49.186Z,26.70
2019-01-30T06:21:24.276Z,27.07
2019-01-30T06:23:59.849Z,26.65
2019-01-30T06:26:35.069Z,28.03
2019-01-30T06:29:09.744Z,25.77
2019-01-30T06:31:44.727Z,25.60
2019-01-30T06:34:19.224Z,26.95
2019-01-30T06:36:54.362Z,26.83
2019-01-30T06:39:28.808Z,25.50
2019-01-30T06:42:03.573Z,26.93
2019-01-30T06:44:38.245Z,26.62
2019-01-30T06:47:12.911Z,25.50
2019-01-30T06:49:47.647Z,25.03
2019-01-30T06:52:22.251Z,26.10
2019-01-30T06:55:15.707Z,25.23
2019-01-30T06:57:50.548Z,26.55
2019-01-30T07:00:26.464Z,27.00
2019-01-30T07:03:02.034Z,25.65
2019-01-30T07:05:36.913Z,25.68
2019-01-30T07:08:11.711Z,26.30
2019-01-30T07:10:46.377Z,26.23
2019-01-30T07:13:20.971Z,26.35
2019-01-30T07:15:55.718Z,26.93
2019-01-30T07:18:30.021Z,26.27
2019-01-30T07:21:05.266Z,27.40
2019-01-30T07:23:40.191Z,25.48
2019-01-30T07:26:16.279Z,26.20
2019-01-30T07:28:50.944Z,26.23
2019-01-30T07:31:25.070Z,26.17
2019-01-30T07:33:59.440Z,27.55
2019-01-30T07:36:34.370Z,27.23
2019-01-30T07:39:11.594Z,27.80
2019-01-30T07:41:46.080Z,26.90
2019-01-30T07:44:21.088Z,27.62
2019-01-30T07:47:15.341Z,26.97
2019-01-30T07:49:57.556Z,27.30
2019-01-30T07:52:32.802Z,26.97
2019-01-30T07:55:08.837Z,26.12
2019-01-30T07:57:43.119Z,27.15
2019-01-30T08:00:23.395Z,27.37
2019-01-30T08:03:00.525Z,26.68
2019-01-30T08:05:54.334Z,25.72
2019-01-30T08:08:29.015Z,27.87
2019-01-30T08:11:03.842Z,27.48
2019-01-30T08:13:38.734Z,27.07
2019-01-30T08:16:13.723Z,26.87
2019-01-30T08:18:48.347Z,27.10
2019-01-30T08:21:23.422Z,27.05
2019-01-30T08:23:58.278Z,26.45
2019-01-30T08:26:33.718Z,27.67
2019-01-30T08:29:08.401Z,27.60
2019-01-30T08:31:43.522Z,28.70
2019-01-30T08:34:18.122Z,27.50
2019-01-30T08:36:53.810Z,28.52
2019-01-30T08:39:28.168Z,27.67
2019-01-30T08:42:02.706Z,28.80
2019-01-30T08:44:46.687Z,28.52
2019-01-30T08:47:13.277Z,29.55
2019-01-30T08:49:48.059Z,30.10
2019-01-30T08:52:23.043Z,29.80
2019-01-30T08:54:57.918Z,31.57
2019-01-30T08:57:53.572Z,30.05
2019-01-30T09:00:30.053Z,30.80
2019-01-30T09:03:14.188Z,30.10
2019-01-30T09:05:41.207Z,29.72
2019-01-30T09:08:16.019Z,31.50
2019-01-30T09:10:51.736Z,31.00
2019-01-30T09:13:26.793Z,31.30
2019-01-30T09:16:03.621Z,31.95
2019-01-30T09:18:38.571Z,32.23
2019-01-30T09:21:13.112Z,32.00
2019-01-30T09:23:47.552Z,32.23
2019-01-30T09:26:22.252Z,33.70
2019-01-30T09:28:56.431Z,32.30
2019-01-30T09:31:31.319Z,32.10
2019-01-30T09:34:06.024Z,32.75
2019-01-30T09:36:59.333Z,33.28
2019-01-30T09:39:34.055Z,31.50
2019-01-30T09:42:08.487Z,32.78
2019-01-30T09:44:43.347Z,33.28
2019-01-30T09:47:17.917Z,32.15
2019-01-30T10:01:52.855Z,29.77
2019-01-30T10:04:51.602Z,30.62
2019-01-30T10:07:25.553Z,32.17
2019-01-30T10:10:00.533Z,33.38
2019-01-30T10:12:35.007Z,33.37
2019-01-30T10:15:10.216Z,31.68
2019-01-30T10:17:45.735Z,31.12
2019-01-30T10:20:22.427Z,31.10
2019-01-30T10:22:56.960Z,30.48
2019-01-30T10:25:31.799Z,30.82
2019-01-30T10:28:15.872Z,30.82
2019-01-30T10:30:46.707Z,29.80
2019-01-30T10:33:21.447Z,31.23
2019-01-30T10:35:56.810Z,30.85
2019-01-30T10:38:50.522Z,31.33
2019-01-30T10:41:25.302Z,29.45
2019-01-30T10:44:00.140Z,29.53
2019-01-30T10:46:34.750Z,29.52
2019-01-30T10:49:09.086Z,29.70
2019-01-30T10:51:44.411Z,30.82
2019-01-30T10:54:21.160Z,30.17
2019-01-30T10:56:58.739Z,30.57
2019-01-30T10:59:40.092Z,28.90
2019-01-30T11:02:15.728Z,29.57
2019-01-30T11:04:50.372Z,29.40
2019-01-30T11:07:25.631Z,30.65
2019-01-30T11:10:00.395Z,28.83
2019-01-30T11:12:35.120Z,29.67
2019-01-30T11:15:10.476Z,29.40
2019-01-30T11:17:46.372Z,30.83
2019-01-30T11:20:22.252Z,29.67
2019-01-30T11:22:57.714Z,30.97
2019-01-30T11:25:34.249Z,30.88
2019-01-30T11:28:09.017Z,28.60
2019-01-30T11:30:43.648Z,27.93
2019-01-30T11:33:20.867Z,27.58
2019-01-30T11:35:55.395Z,27.73
2019-01-30T11:38:32.578Z,26.83
2019-01-30T11:41:28.338Z,28.35
2019-01-30T11:44:05.712Z,27.80
2019-01-30T11:46:40.598Z,27.05
2019-01-30T11:49:15.548Z,26.93
2019-01-30T11:51:50.034Z,26.17
2019-01-30T11:54:24.940Z,27.37
2019-01-30T11:56:59.789Z,27.83
2019-01-30T11:59:34.569Z,25.77
2019-01-30T12:02:09.260Z,26.60
2019-01-30T12:04:43.951Z,27.73
2019-01-30T12:07:18.747Z,27.13
2019-01-30T12:09:55.849Z,26.07
2019-01-30T12:12:29.630Z,27.10
2019-01-30T12:15:04.320Z,27.53
2019-01-30T12:17:56.521Z,26.90
2019-01-30T12:20:31.442Z,24.90
2019-01-30T12:23:05.856Z,25.80
2019-01-30T12:26:00.192Z,26.50
2019-01-30T12:28:37.305Z,26.60
2019-01-30T12:31:11.963Z,26.87
2019-01-30T12:33:46.605Z,26.07
2019-01-30T12:36:21.659Z,26.57
2019-01-30T12:38:56.239Z,26.50
2019-01-30T12:41:30.953Z,27.63
2019-01-30T12:44:05.938Z,26.67
2019-01-30T12:46:40.509Z,25.97
2019-01-30T12:49:15.297Z,27.50
2019-01-30T12:51:49.487Z,26.90
2019-01-30T12:54:24.301Z,25.33
2019-01-30T12:56:58.631Z,26.73
2019-01-30T12:59:33.364Z,26.37
2019-01-30T13:02:08.012Z,26.57
2019-01-30T13:04:43.215Z,27.03
2019-01-30T13:07:18.222Z,27.47
2019-01-30T13:09:52.771Z,26.07
2019-01-30T13:12:27.869Z,26.77
2019-01-30T13:15:02.507Z,28.70
2019-01-30T13:17:37.205Z,27.67
2019-01-30T13:20:15.694Z,27.60
2019-01-30T13:22:50.274Z,26.73
2019-01-30T13:25:27.150Z,27.90
2019-01-30T13:28:01.338Z,25.97
2019-01-30T13:30:37.350Z,28.27
2019-01-30T13:33:13.238Z,28.40
2019-01-30T13:35:48.362Z,27.17
2019-01-30T13:38:22.643Z,28.03
2019-01-30T13:40:59.854Z,28.53
2019-01-30T13:43:34.848Z,27.97
2019-01-30T13:46:09.329Z,29.13
2019-01-30T13:48:44.104Z,28.30
2019-01-30T13:51:19.014Z,28.60
2019-01-30T13:53:53.493Z,29.53
2019-01-30T13:56:28.333Z,28.37
2019-01-30T13:59:02.712Z,27.40
2019-01-30T14:01:56.846Z,28.07
2019-01-30T14:04:30.779Z,27.00
2019-01-30T14:07:05.086Z,29.47
2019-01-30T14:09:40.645Z,29.00
2019-01-30T14:12:15.180Z,30.47
2019-01-30T14:14:50.138Z,29.10
2019-01-30T14:17:24.877Z,29.93
2019-01-30T14:20:03.072Z,30.07
2019-01-30T14:22:37.593Z,28.43
2019-01-30T14:25:13.125Z,29.30
2019-01-30T14:27:47.424Z,30.17
2019-01-30T14:30:27.574Z,28.03
2019-01-30T14:33:02.325Z,30.20
2019-01-30T14:35:38.985Z,29.13
2019-01-30T14:38:13.835Z,29.27
2019-01-30T14:40:48.741Z,30.43
2019-01-30T14:43:23.508Z,28.80
2019-01-30T14:45:58.276Z,30.67
2019-01-30T14:48:34.461Z,29.70
2019-01-30T14:51:09.121Z,30.17
2019-01-30T14:53:43.855Z,29.73
2019-01-30T14:56:18.321Z,28.37
2019-01-30T14:58:53.579Z,29.03
2019-01-30T15:01:30.052Z,29.17
2019-01-30T15:04:05.349Z,29.93
2019-01-30T15:06:39.758Z,29.73
2019-01-30T15:09:34.453Z,30.87
2019-01-30T15:12:09.198Z,30.10
2019-01-30T15:14:43.936Z,29.77
2019-01-30T15:17:18.724Z,30.30
2019-01-30T15:19:53.540Z,29.20
2019-01-30T15:22:27.905Z,29.90
2019-01-30T15:25:02.332Z,29.50
2019-01-30T15:27:37.250Z,31.60
2019-01-30T15:30:14.126Z,30.17
2019-01-30T15:32:48.908Z,28.90
2019-01-30T15:35:33.239Z,30.47
2019-01-30T15:38:00.094Z,31.63
2019-01-30T15:40:34.875Z,31.27
2019-01-30T15:43:09.945Z,30.27
2019-01-30T15:45:45.317Z,32.53
2019-01-30T15:48:19.771Z,31.47
2019-01-30T15:50:54.821Z,32.07
2019-01-30T15:53:30.242Z,32.90
2019-01-30T15:56:04.810Z,32.43
2019-01-30T15:58:39.401Z,32.20
2019-01-30T16:01:24.456Z,31.50
2019-01-30T16:03:58.864Z,31.00
2019-01-30T16:06:33.621Z,32.40
2019-01-30T16:09:10.919Z,33.00
2019-01-30T16:11:45.833Z,31.40
2019-01-30T16:14:21.118Z,32.40
2019-01-30T16:16:55.940Z,31.53
2019-01-30T16:19:30.329Z,32.33
2019-01-30T16:22:05.121Z,32.73
2019-01-30T16:24:39.976Z,32.20
2019-01-30T16:27:14.812Z,31.50
2019-01-30T16:29:49.175Z,31.33
2019-01-30T16:32:24.495Z,30.93
2019-01-30T16:34:58.788Z,32.07
2019-01-30T16:37:33.790Z,33.00
2019-01-30T16:40:09.678Z,30.67
2019-01-30T16:42:44.310Z,31.33
2019-01-30T16:45:20.479Z,32.83
2019-01-30T16:48:14.108Z,32.17
2019-01-30T16:50:48.614Z,30.10
2019-01-30T16:53:24.407Z,30.97
2019-01-30T16:55:59.228Z,31.37
2019-01-30T16:58:34.095Z,29.70
2019-01-30T17:01:09.076Z,30.87
2019-01-30T17:03:44.334Z,31.67
2019-01-30T17:06:19.575Z,29.97
2019-01-30T17:08:54.489Z,30.17
2019-01-30T17:11:30.034Z,28.93
2019-01-30T17:14:04.929Z,30.33
2019-01-30T17:16:40.111Z,30.20
2019-01-30T17:19:34.098Z,29.27
2019-01-30T17:22:09.855Z,28.90
2019-01-30T17:24:44.412Z,29.20
2019-01-30T17:27:19.116Z,27.87
2019-01-30T17:29:54.212Z,29.27
2019-01-30T17:32:28.916Z,27.83
2019-01-30T17:35:03.633Z,26.50
2019-01-30T17:37:38.217Z,27.27
2019-01-30T17:40:15.540Z,27.47
2019-01-30T17:42:50.506Z,25.23
2019-01-30T17:45:25.077Z,25.37
2019-01-30T17:47:59.500Z,26.33
2019-01-30T17:50:34.192Z,25.27
2019-01-30T17:53:09.322Z,25.73
2019-01-30T17:55:43.890Z,25.30
2019-01-30T17:58:19.675Z,25.13
2019-01-30T18:01:05.300Z,23.73
2019-01-30T18:03:50.607Z,24.80
2019-01-30T18:09:20.020Z,23.37
2019-01-30T18:11:54.435Z,23.70
2019-01-30T18:14:50.069Z,23.83
2019-01-30T18:17:27.128Z,23.07
2019-01-30T18:20:01.306Z,23.13
2019-01-30T18:22:36.243Z,23.47
2019-01-30T18:25:11.818Z,21.93
2019-01-30T18:27:46.460Z,23.03
2019-01-30T18:30:22.086Z,22.00
2019-01-30T18:32:56.883Z,22.47
2019-01-30T18:35:32.092Z,21.80
2019-01-30T18:38:07.710Z,21.13
2019-01-30T18:40:42.500Z,20.25
2019-01-30T18:43:18.113Z,20.80
2019-01-30T18:45:53.310Z,21.10
2019-01-30T18:48:45.739Z,21.77
2019-01-30T18:51:20.908Z,20.77
2019-01-30T18:53:55.728Z,20.33
2019-01-30T18:56:30.323Z,20.53
2019-01-30T18:59:04.953Z,21.37
2019-01-30T19:01:39.761Z,20.97
2019-01-30T19:04:15.055Z,20.03
2019-01-30T19:06:52.498Z,20.00
2019-01-30T19:09:25.811Z,20.43
2019-01-30T19:12:00.312Z,19.30
2019-01-30T19:14:34.931Z,18.40
2019-01-30T19:17:10.175Z,20.00
2019-01-30T19:19:45.251Z,19.53
2019-01-30T19:22:20.589Z,18.97
2019-01-30T19:24:55.505Z,20.20
2019-01-30T19:27:29.701Z,19.10
2019-01-30T19:30:04.549Z,19.93
2019-01-30T19:32:39.461Z,19.30
2019-01-30T19:35:33.073Z,18.87
2019-01-30T19:38:08.858Z,18.10
2019-01-30T19:40:44.347Z,19.50
2019-01-30T19:43:18.944Z,19.30
2019-01-30T19:45:55.334Z,18.90
2019-01-30T19:48:29.955Z,19.33
2019-01-30T19:51:04.987Z,19.43
2019-01-30T19:53:39.540Z,17.93
2019-01-30T19:56:14.347Z,17.90
2019-01-30T19:58:49.029Z,18.17
2019-01-30T20:01:24.227Z,19.47
2019-01-30T20:03:58.665Z,18.60
2019-01-30T20:06:33.744Z,18.60
2019-01-30T20:09:10.900Z,19.40
2019-01-30T20:11:45.557Z,19.23
2019-01-30T20:14:20.275Z,18.63
2019-01-30T20:16:57.044Z,19.10
2019-01-30T20:19:31.569Z,19.43
2019-01-30T20:22:06.334Z,18.73
2019-01-30T20:24:41.141Z,18.17
2019-01-30T20:27:15.825Z,18.97
2019-01-30T20:29:50.711Z,19.07
2019-01-30T20:32:25.208Z,19.80
2019-01-30T20:35:00.366Z,19.67
2019-01-30T20:37:37.590Z,18.70
2019-01-30T20:40:31.494Z,18.40
2019-01-30T20:43:06.436Z,18.53
2019-01-30T20:45:41.536Z,18.90
2019-01-30T20:48:16.540Z,18.40
2019-01-30T20:50:51.744Z,18.67
2019-01-30T20:53:26.707Z,18.63
2019-01-30T20:56:02.472Z,19.27
2019-01-30T20:58:36.891Z,18.47
2019-01-30T21:01:12.247Z,18.77
2019-01-30T21:03:47.122Z,18.70
2019-01-30T21:06:21.560Z,18.53
2019-01-30T21:08:56.589Z,17.90
2019-01-30T21:11:31.249Z,17.83
2019-01-30T21:14:06.554Z,17.80
2019-01-30T21:16:42.188Z,18.47
2019-01-30T21:19:16.679Z,19.03
2019-01-30T21:21:51.926Z,17.97
2019-01-30T21:24:27.197Z,18.10
2019-01-30T21:27:02.065Z,17.77
2019-01-30T21:29:36.666Z,18.03
2019-01-30T21:32:11.721Z,18.00
2019-01-30T21:34:46.250Z,17.47
2019-01-30T21:37:21.380Z,17.57
2019-01-30T21:39:56.281Z,18.03
2019-01-30T21:42:49.893Z,19.40
2019-01-30T21:45:25.927Z,17.70
2019-01-30T21:48:00.918Z,16.67
2019-01-30T21:50:35.475Z,18.00
2019-01-30T21:53:10.348Z,17.83
2019-01-30T21:55:44.814Z,17.30
2019-01-30T21:58:19.956Z,17.37
2019-01-30T22:00:54.858Z,17.00
2019-01-30T22:03:29.516Z,17.13
2019-01-30T22:06:05.104Z,16.73
2019-01-30T22:08:39.705Z,16.20
2019-01-30T22:13:59.584Z,16.97
2019-01-30T22:16:34.956Z,17.20
2019-01-30T22:19:09.598Z,17.63
2019-01-30T22:21:44.735Z,17.77
2019-01-30T22:24:19.394Z,17.43
2019-01-30T22:26:54.693Z,15.40
2019-01-30T22:29:29.733Z,16.87
2019-01-30T22:32:04.731Z,17.00
2019-01-30T22:34:39.150Z,17.47
2019-01-30T22:37:14.932Z,17.27
2019-01-30T22:39:49.820Z,16.33
2019-01-30T22:42:24.524Z,17.57
2019-01-30T22:45:18.364Z,17.30
2019-01-30T22:47:52.988Z,16.77
2019-01-30T22:50:27.680Z,17.90
2019-01-30T22:53:02.558Z,16.33
2019-01-30T22:55:37.410Z,17.03
2019-01-30T22:58:12.382Z,16.80
2019-01-30T23:01:05.720Z,16.27
2019-01-30T23:04:15.272Z,16.73
2019-01-30T23:07:38.715Z,16.63
2019-01-30T23:10:41.179Z,16.40
2019-01-30T23:13:52.002Z,15.30
2019-01-30T23:17:02.624Z,16.37
2019-01-30T23:20:04.718Z,16.80
2019-01-30T23:23:17.564Z,16.00
2019-01-30T23:26:02.101Z,16.50
2019-01-30T23:29:19.718Z,17.40
2019-01-30T23:32:01.821Z,16.10
2019-01-30T23:35:28.280Z,16.23
2019-01-30T23:38:20.167Z,15.37
2019-01-30T23:41:06.784Z,15.53
2019-01-30T23:44:12.772Z,15.43
2019-01-30T23:47:23.885Z,16.17
2019-01-30T23:50:40.194Z,15.67
2019-01-30T23:53:57.892Z,14.87
2019-01-30T23:57:18.040Z,14.63
